This is the latest recevied weather packets stored in our database for station/object KY4LEX. If no packets are shown the sender has not sent any weather packets the latest 10 day(s).
| Time | Temp. | Humidity | Pressure | Rain* | Wind** | Luminosity | Snow |
|---|---|---|---|---|---|---|---|
| 1777580862 | 17.78° C | 37% | 1020.8 hPa | 0 mm | - | 483 W/m² | - |
| 1777580557 | 18.89° C | 33% | 1021 hPa | 0 mm | - | 494 W/m² | - |
| 1777580253 | 19.44° C | 33% | 1021 hPa | 0 mm | - | 515 W/m² | - |
| 1777579950 | 17.78° C | 36% | 1021.3 hPa | 0 mm | - | 526 W/m² | - |
| 1777579645 | 18.89° C | 33% | 1021.3 hPa | 0 mm | - | 544 W/m² | - |
| 1777579344 | 19.44° C | 32% | 1021.3 hPa | 0 mm | - | 544 W/m² | - |
| 1777579040 | 18.89° C | 35% | 1021.6 hPa | 0 mm | - | 561 W/m² | - |
| 1777578735 | 18.33° C | 35% | 1021.4 hPa | 0 mm | - | 580 W/m² | - |
| 1777578435 | 17.78° C | 36% | 1021.4 hPa | 0 mm | - | 585 W/m² | - |
| 1777578131 | 17.78° C | 34% | 1021.4 hPa | 0 mm | - | 590 W/m² | - |
| 1777577827 | 17.22° C | 36% | 1021.4 hPa | 0 mm | - | 598 W/m² | - |
| 1777577522 | 18.33° C | 34% | 1021.7 hPa | 0 mm | - | 611 W/m² | - |
| 1777577219 | 17.78° C | 38% | 1021.6 hPa | 0 mm | - | 629 W/m² | - |
| 1777576915 | 17.22° C | 37% | 1021.4 hPa | 0 mm | - | 636 W/m² | - |
| 1777576610 | 17.78° C | 39% | 1021.4 hPa | 0 mm | - | 644 W/m² | - |
| 1777576306 | 18.33° C | 37% | 1021.4 hPa | 0 mm | - | 653 W/m² | - |
| 1777576003 | 18.33° C | 37% | 1021.2 hPa | 0 mm | - | 667 W/m² | - |
| 1777575699 | 17.78° C | 37% | 1021.3 hPa | 0 mm | - | 669 W/m² | - |
| 1777575394 | 17.22° C | 39% | 1021.4 hPa | 0 mm | - | 683 W/m² | - |
| 1777575091 | 16.67° C | 42% | 1021.2 hPa | 0 mm | - | 697 W/m² | - |
| 1777574786 | 17.22° C | 39% | 1021.2 hPa | 0 mm | - | 696 W/m² | - |
| 1777574485 | 17.78° C | 38% | 1021.3 hPa | 0 mm | - | 707 W/m² | - |
| 1777574181 | 16.67° C | 42% | 1021.2 hPa | 0 mm | - | 694 W/m² | - |
| 1777573876 | 16.67° C | 38% | 1021.7 hPa | 0 mm | - | 263 W/m² | - |
| 1777573571 | 16.67° C | 38% | 1021.8 hPa | 0 mm | - | 783 W/m² | - |
* Rain latest hour (hover to see other rain measurements)
** Current wind speed in m/s (hover to see current wind gust speed)